Time;durP1;ratioP1;P1;durP2;ratioP2;P2;SDS_P1;SDS_P2;PMS_P1;PMS_P2;Temp;Humidity;BMP_temperature;BMP_pressure;BME280_temperature;BME280_humidity;BME280_pressure;Samples;Min_cycle;Max_cycle;Signal;HPM_P1;HPM_P2
2023/11/10 00:00:09;;;;;;;;;2.50;1.00;;;;;11.86;78.46;99761.69;5076241;27;45327;-61
2023/11/10 00:02:35;;;;;;;;;2.00;1.75;;;;;11.82;78.33;99754.75;5075009;27;45525;-61
2023/11/10 00:05:00;;;;;;;;;2.25;1.25;;;;;11.84;78.52;99763.59;5073956;27;45488;-61
2023/11/10 00:07:26;;;;;;;;;1.00;1.00;;;;;11.66;78.02;99735.13;5068430;27;72064;-61
2023/11/10 00:09:52;;;;;;;;;1.75;1.75;;;;;11.78;78.22;99769.25;5076319;28;45399;-61
2023/11/10 00:12:17;;;;;;;;;4.00;2.00;;;;;11.77;77.97;99772.00;5075340;27;45302;-61
2023/11/10 00:14:45;;;;;;;;;1.50;0.50;;;;;11.76;78.35;99772.94;5064160;27;45405;-61
2023/11/10 00:17:10;;;;;;;;;0.00;0.00;;;;;11.69;78.16;99769.72;5073811;27;45709;-61
2023/11/10 00:19:36;;;;;;;;;0.50;0.50;;;;;11.77;78.25;99775.53;5064051;27;45453;-61
2023/11/10 00:22:04;;;;;;;;;1.25;0.00;;;;;11.73;77.86;99765.06;5072409;27;45500;-61
2023/11/10 00:24:33;;;;;;;;;4.75;0.75;;;;;11.73;78.07;99767.75;5063535;27;46118;-61
2023/11/10 00:26:58;;;;;;;;;1.00;1.00;;;;;11.74;78.13;99770.34;5060771;27;45683;-61
2023/11/10 00:29:24;;;;;;;;;5.00;1.00;;;;;11.76;78.28;99775.59;5058893;28;45718;-61
2023/11/10 00:31:49;;;;;;;;;1.00;0.00;;;;;11.76;78.26;99771.16;5075153;27;64585;-61
2023/11/10 00:34:15;;;;;;;;;1.75;0.50;;;;;11.75;77.97;99766.72;5074001;28;73243;-61
2023/11/10 00:36:41;;;;;;;;;2.00;0.00;;;;;11.79;77.60;99770.09;5071267;27;45693;-61
2023/11/10 00:39:06;;;;;;;;;0.00;0.00;;;;;11.71;77.79;99769.63;5075466;28;67298;-61
2023/11/10 00:41:32;;;;;;;;;1.50;1.00;;;;;11.74;77.62;99774.81;5066742;27;45391;-61
2023/11/10 00:43:57;;;;;;;;;0.00;0.00;;;;;11.76;77.74;99775.59;5079408;27;62918;-61
2023/11/10 00:46:22;;;;;;;;;0.00;0.00;;;;;11.63;77.74;99754.03;5073756;27;64012;-61
2023/11/10 00:48:48;;;;;;;;;1.00;0.00;;;;;11.75;77.68;99765.88;5074847;28;45617;-61
2023/11/10 00:51:13;;;;;;;;;2.75;1.00;;;;;11.68;77.53;99754.63;5063494;27;45529;-61
2023/11/10 00:53:38;;;;;;;;;0.50;0.50;;;;;11.70;77.69;99758.09;5068263;27;65683;-61
2023/11/10 00:56:04;;;;;;;;;0.25;0.00;;;;;11.73;77.87;99755.25;5069389;27;45494;-61
2023/11/10 00:58:29;;;;;;;;;0.75;0.00;;;;;11.76;77.34;99763.13;5076348;27;45577;-61
2023/11/10 01:00:54;;;;;;;;;3.00;1.00;;;;;11.76;77.34;99756.88;5059243;27;71796;-61
2023/11/10 01:03:20;;;;;;;;;2.50;0.00;;;;;11.76;77.42;99748.88;5075206;28;63628;-61
2023/11/10 01:05:45;;;;;;;;;0.50;0.00;;;;;11.71;77.33;99743.78;5059732;27;45295;-61
2023/11/10 01:08:11;;;;;;;;;2.00;0.50;;;;;11.69;77.36;99740.31;5064963;27;45570;-61
2023/11/10 01:10:36;;;;;;;;;0.00;0.00;;;;;11.70;77.04;99743.88;5059846;28;45307;-61
2023/11/10 01:13:03;;;;;;;;;0.00;0.00;;;;;11.74;77.01;99748.94;5074627;27;45893;-61
2023/11/10 01:15:28;;;;;;;;;2.25;1.00;;;;;11.74;77.16;99748.09;5059575;28;45621;-61
2023/11/10 01:17:54;;;;;;;;;2.50;0.75;;;;;11.71;77.07;99735.78;5075765;27;45510;-61
2023/11/10 01:20:19;;;;;;;;;1.00;1.00;;;;;11.75;76.76;99747.16;5077474;27;45602;-61
2023/11/10 01:22:44;;;;;;;;;0.00;0.00;;;;;11.74;77.06;99756.97;5074267;27;46463;-61
2023/11/10 01:25:13;;;;;;;;;1.00;1.00;;;;;11.70;77.07;99746.53;5059389;28;45417;-61
2023/11/10 01:27:41;;;;;;;;;1.75;0.75;;;;;11.68;77.02;99738.59;5072858;27;45447;-61
2023/11/10 01:30:07;;;;;;;;;3.00;1.00;;;;;11.67;76.89;99748.41;5070328;27;45370;-61
2023/11/10 01:32:32;;;;;;;;;2.50;1.00;;;;;11.68;76.91;99749.28;5079243;27;46278;-61
2023/11/10 01:34:57;;;;;;;;;1.00;0.00;;;;;11.67;77.19;99745.72;5069428;27;45433;-61
2023/11/10 01:37:23;;;;;;;;;1.00;1.00;;;;;11.66;77.26;99745.81;5074627;27;45805;-61
2023/11/10 01:39:48;;;;;;;;;0.50;0.50;;;;;11.59;77.33;99733.72;5069358;28;45490;-61
2023/11/10 01:42:14;;;;;;;;;1.00;0.00;;;;;11.64;77.07;99761.06;5070978;27;45446;-61
2023/11/10 01:44:39;;;;;;;;;1.00;0.00;;;;;11.58;77.30;99748.91;5079413;28;45416;-61
2023/11/10 01:47:05;;;;;;;;;0.25;0.00;;;;;11.61;77.27;99755.88;5067892;27;69249;-61
2023/11/10 01:49:33;;;;;;;;;1.00;1.00;;;;;11.60;77.02;99760.38;5068639;27;45530;-61
2023/11/10 01:51:58;;;;;;;;;0.00;0.00;;;;;11.58;77.33;99758.75;5076747;27;45468;-61
2023/11/10 01:54:27;;;;;;;;;1.00;0.25;;;;;11.54;77.13;99744.66;5067000;27;63313;-61
2023/11/10 01:56:53;;;;;;;;;1.25;0.00;;;;;11.46;77.32;99737.06;5064386;27;45392;-61
2023/11/10 01:59:22;;;;;;;;;1.00;1.00;;;;;11.55;77.26;99758.91;5068402;27;45431;-61
2023/11/10 02:01:48;;;;;;;;;0.00;0.00;;;;;11.42;77.46;99747.97;5062949;27;45435;-61
2023/11/10 02:04:16;;;;;;;;;0.00;0.00;;;;;11.45;77.19;99750.50;5078423;27;45842;-61
2023/11/10 02:06:44;;;;;;;;;1.00;1.00;;;;;11.47;77.51;99767.31;5064157;27;45593;-61
2023/11/10 02:09:10;;;;;;;;;1.00;0.50;;;;;11.40;77.21;99750.72;5068600;28;45507;-61
2023/11/10 02:11:38;;;;;;;;;2.50;1.00;;;;;11.42;77.45;99756.84;5060643;27;46309;-61
2023/11/10 02:14:08;;;;;;;;;0.75;0.75;;;;;11.44;77.42;99762.13;5079113;27;45589;-61
2023/11/10 02:16:33;;;;;;;;;0.50;0.00;;;;;11.35;77.58;99747.44;5074065;27;45374;-61
2023/11/10 02:18:59;;;;;;;;;2.25;1.00;;;;;11.35;77.50;99750.09;5078924;27;45518;-61
2023/11/10 02:21:25;;;;;;;;;1.75;0.50;;;;;11.31;77.38;99737.84;5070399;27;46314;-61
2023/11/10 02:23:54;;;;;;;;;2.25;1.00;;;;;11.37;77.87;99753.53;5064118;27;70572;-61
2023/11/10 02:26:20;;;;;;;;;0.25;0.00;;;;;11.39;77.42;99746.31;5058727;28;45427;-61
2023/11/10 02:28:45;;;;;;;;;0.75;0.75;;;;;11.42;77.39;99751.50;5077598;27;50024;-61
2023/11/10 02:31:12;;;;;;;;;1.75;1.75;;;;;11.42;77.46;99743.47;5069186;28;59216;-61
2023/11/10 02:33:37;;;;;;;;;3.00;1.75;;;;;11.36;77.34;99733.13;5078641;27;45517;-61
2023/11/10 02:36:03;;;;;;;;;1.00;1.00;;;;;11.40;77.44;99749.88;5059349;28;45313;-61
2023/11/10 02:38:28;;;;;;;;;0.00;0.00;;;;;11.38;77.01;99738.41;5075000;27;45404;-61
2023/11/10 02:40:53;;;;;;;;;0.00;0.00;;;;;11.38;77.06;99738.41;5058869;27;45336;-61
2023/11/10 02:43:19;;;;;;;;;1.00;1.00;;;;;11.32;77.41;99723.53;5071074;27;64068;-61
2023/11/10 02:45:44;;;;;;;;;0.00;0.00;;;;;11.32;76.97;99726.19;5072390;27;45468;-61
2023/11/10 02:48:09;;;;;;;;;1.25;1.00;;;;;11.27;77.11;99720.25;5085501;27;71888;-61
2023/11/10 02:50:35;;;;;;;;;1.50;0.25;;;;;11.27;77.33;99717.56;5072672;27;45419;-61
2023/11/10 02:53:00;;;;;;;;;1.25;0.00;;;;;11.26;77.35;99718.50;5071644;27;45732;-61
2023/11/10 02:55:26;;;;;;;;;0.00;0.00;;;;;11.27;77.20;99725.56;5062282;27;45613;-61
2023/11/10 02:57:51;;;;;;;;;1.00;0.00;;;;;11.21;77.40;99720.53;5072023;27;45296;-61
2023/11/10 03:00:17;;;;;;;;;1.25;0.00;;;;;11.12;77.29;99714.72;5074950;28;60261;-61
2023/11/10 03:02:42;;;;;;;;;2.00;1.00;;;;;11.12;77.32;99725.41;5073657;27;45491;-61
2023/11/10 03:05:07;;;;;;;;;2.75;0.00;;;;;11.04;77.13;99708.06;5075064;27;52308;-61
2023/11/10 03:07:33;;;;;;;;;1.25;0.25;;;;;11.15;77.62;99724.41;5065340;27;73329;-61
2023/11/10 03:09:58;;;;;;;;;0.00;0.00;;;;;11.21;77.59;99745.47;5061402;28;46103;-61
2023/11/10 03:12:24;;;;;;;;;0.00;0.00;;;;;11.22;77.23;99746.31;5068291;27;45343;-61
2023/11/10 03:14:49;;;;;;;;;4.00;1.00;;;;;11.20;77.14;99746.41;5077168;27;45692;-61
2023/11/10 03:17:15;;;;;;;;;1.50;1.00;;;;;11.23;77.20;99753.41;5064817;27;45387;-61
2023/11/10 03:19:43;;;;;;;;;0.00;0.00;;;;;11.20;77.66;99762.44;5077822;27;46274;-61
2023/11/10 03:22:10;;;;;;;;;1.00;1.00;;;;;11.19;77.62;99763.34;5063331;27;62129;-61
2023/11/10 03:24:37;;;;;;;;;2.75;0.75;;;;;11.05;77.50;99749.84;5077257;27;45526;-61
2023/11/10 03:27:02;;;;;;;;;0.50;0.00;;;;;11.11;76.73;99749.56;5063002;27;45465;-61
2023/11/10 03:29:27;;;;;;;;;0.00;0.00;;;;;11.17;77.07;99765.25;5076782;27;45546;-61
2023/11/10 03:31:52;;;;;;;;;1.00;0.00;;;;;11.09;77.22;99762.97;5075277;28;61789;-61
2023/11/10 03:34:18;;;;;;;;;2.75;0.75;;;;;11.11;76.93;99761.09;5075955;27;59763;-61
2023/11/10 03:36:44;;;;;;;;;1.00;0.75;;;;;11.09;77.09;99752.31;5076962;28;45626;-61
2023/11/10 03:39:09;;;;;;;;;0.50;0.50;;;;;11.05;77.16;99744.50;5075057;27;46055;-61
2023/11/10 03:41:37;;;;;;;;;0.00;0.00;;;;;11.12;77.71;99744.09;5061042;28;45322;-61
2023/11/10 03:44:03;;;;;;;;;1.00;0.50;;;;;11.11;77.21;99737.06;5079585;27;45480;-61
2023/11/10 03:46:28;;;;;;;;;0.50;0.00;;;;;11.10;76.65;99729.97;5078774;28;45469;-61
2023/11/10 03:48:54;;;;;;;;;2.00;1.00;;;;;11.08;77.13;99729.19;5075951;27;58308;-61
2023/11/10 03:51:19;;;;;;;;;0.75;0.75;;;;;11.07;76.84;99724.78;5068755;28;60932;-61
2023/11/10 03:53:45;;;;;;;;;3.50;1.00;;;;;11.07;76.78;99729.28;5075287;27;45438;-61
2023/11/10 03:56:10;;;;;;;;;0.00;0.00;;;;;11.05;76.65;99731.16;5070607;27;45423;-61
2023/11/10 03:58:36;;;;;;;;;1.00;0.25;;;;;11.06;77.08;99744.44;5074966;27;48817;-61
2023/11/10 04:01:02;;;;;;;;;3.00;1.00;;;;;11.01;77.01;99735.78;5068981;27;45451;-61
2023/11/10 04:03:27;;;;;;;;;0.75;0.25;;;;;11.02;77.01;99736.66;5071520;27;45424;-61
2023/11/10 04:05:52;;;;;;;;;2.00;1.00;;;;;11.00;77.16;99741.22;5069427;27;45457;-61
2023/11/10 04:08:18;;;;;;;;;2.00;0.50;;;;;11.01;76.94;99741.13;5071467;27;75606;-61
2023/11/10 04:10:43;;;;;;;;;2.00;0.75;;;;;11.01;77.03;99738.47;5070872;27;45370;-61
2023/11/10 04:13:09;;;;;;;;;0.00;0.00;;;;;10.98;77.10;99740.44;5069630;27;45351;-61
2023/11/10 04:15:34;;;;;;;;;2.50;0.50;;;;;10.86;77.42;99725.84;5070712;28;45334;-61
2023/11/10 04:18:00;;;;;;;;;2.75;1.00;;;;;10.86;77.21;99725.84;5068551;27;46568;-61
2023/11/10 04:20:26;;;;;;;;;1.75;0.00;;;;;10.85;77.08;99732.16;5068094;28;45656;-61
2023/11/10 04:22:51;;;;;;;;;0.50;0.50;;;;;10.68;77.37;99699.16;5077294;27;45812;-61
2023/11/10 04:25:17;;;;;;;;;1.00;1.00;;;;;10.91;77.14;99737.19;5070399;27;45256;-61
2023/11/10 04:27:43;;;;;;;;;0.00;0.00;;;;;10.93;77.46;99738.84;5067456;27;45331;-61
2023/11/10 04:30:09;;;;;;;;;1.00;1.00;;;;;10.88;77.21;99724.84;5090197;27;45427;-61
2023/11/10 04:32:36;;;;;;;;;2.75;0.25;;;;;10.93;77.21;99735.31;5078609;27;45574;-61
2023/11/10 04:35:02;;;;;;;;;0.00;0.00;;;;;10.91;76.93;99726.53;5080526;27;45412;-61
2023/11/10 04:37:27;;;;;;;;;0.00;0.00;;;;;10.89;77.55;99726.59;5075880;27;45550;-61
2023/11/10 04:39:53;;;;;;;;;1.00;0.00;;;;;10.84;77.50;99714.41;5080528;27;45381;-61
2023/11/10 04:42:19;;;;;;;;;3.00;0.75;;;;;10.78;77.19;99706.72;5062779;27;45315;-61
2023/11/10 04:44:45;;;;;;;;;0.25;0.00;;;;;10.81;77.44;99707.44;5089080;27;45423;-61
2023/11/10 04:47:11;;;;;;;;;1.00;1.00;;;;;10.88;77.30;99708.84;5066003;27;46563;-61
2023/11/10 04:49:38;;;;;;;;;1.25;0.00;;;;;10.86;77.13;99716.06;5080544;27;45381;-61
2023/11/10 04:52:04;;;;;;;;;1.00;1.00;;;;;10.83;77.65;99718.03;5062284;27;45439;-61
2023/11/10 04:54:30;;;;;;;;;1.00;1.00;;;;;10.71;76.89;99695.47;5077120;27;45425;-61
2023/11/10 04:56:55;;;;;;;;;4.25;1.00;;;;;10.69;77.59;99700.00;5066132;27;46910;-61
2023/11/10 04:59:20;;;;;;;;;0.75;0.75;;;;;10.73;77.39;99709.59;5077875;27;71182;-61
2023/11/10 05:01:46;;;;;;;;;0.75;0.00;;;;;10.71;77.87;99695.47;5060677;28;67461;-61
2023/11/10 05:04:13;;;;;;;;;0.50;0.50;;;;;10.73;77.53;99698.94;5072429;27;45525;-61
2023/11/10 05:06:39;;;;;;;;;2.25;1.00;;;;;10.78;77.66;99688.88;5065446;27;47254;-61
2023/11/10 05:09:07;;;;;;;;;1.25;1.25;;;;;10.74;77.46;99706.88;5072903;27;45450;-61
2023/11/10 05:11:36;;;;;;;;;1.00;1.00;;;;;10.67;77.39;99689.41;5062879;27;45283;-61
2023/11/10 05:14:01;;;;;;;;;0.25;0.00;;;;;10.70;77.74;99697.25;5071495;27;45327;-61
2023/11/10 05:16:29;;;;;;;;;1.00;1.00;;;;;10.71;77.59;99704.34;5069993;27;46323;-60
2023/11/10 05:18:56;;;;;;;;;0.50;0.50;;;;;10.68;77.29;99700.97;5070000;27;45341;-61
2023/11/10 05:21:21;;;;;;;;;0.00;0.00;;;;;10.69;77.51;99702.69;5075443;27;45502;-61
2023/11/10 05:23:46;;;;;;;;;0.50;0.00;;;;;10.62;77.66;99698.59;5068653;27;55008;-61
2023/11/10 05:26:12;;;;;;;;;0.00;0.00;;;;;10.54;77.34;99691.84;5075402;27;46220;-60
2023/11/10 05:28:37;;;;;;;;;0.00;0.00;;;;;10.56;77.69;99694.44;5067363;27;45387;-61
2023/11/10 05:31:03;;;;;;;;;1.75;1.75;;;;;10.64;77.42;99718.06;5078991;28;54222;-60
2023/11/10 05:33:29;;;;;;;;;0.50;0.00;;;;;10.60;77.90;99696.00;5074991;27;45552;-61
2023/11/10 05:35:54;;;;;;;;;2.00;1.00;;;;;10.62;77.61;99695.91;5068601;27;47443;-60
2023/11/10 05:38:20;;;;;;;;;1.75;0.25;;;;;10.56;77.99;99692.63;5064392;27;45530;-61
2023/11/10 05:40:45;;;;;;;;;1.00;1.00;;;;;10.49;77.87;99666.28;5074707;28;56698;-61
2023/11/10 05:43:11;;;;;;;;;0.75;0.75;;;;;10.57;78.13;99690.81;5069981;27;45634;-61
2023/11/10 05:45:37;;;;;;;;;1.00;1.00;;;;;10.57;77.96;99691.69;5076645;27;45461;-61
2023/11/10 05:48:02;;;;;;;;;1.25;1.25;;;;;10.59;77.97;99683.56;5070086;27;45608;-61
2023/11/10 05:50:28;;;;;;;;;2.00;2.00;;;;;10.58;78.16;99684.53;5073556;27;45381;-60
2023/11/10 05:52:53;;;;;;;;;0.75;0.50;;;;;10.54;78.24;99688.28;5059560;27;45439;-61
2023/11/10 05:55:18;;;;;;;;;0.50;0.50;;;;;10.46;77.83;99683.34;5073830;28;62600;-61
2023/11/10 05:57:44;;;;;;;;;2.25;1.25;;;;;10.43;78.12;99669.28;5058226;28;68613;-61
2023/11/10 06:00:09;;;;;;;;;0.50;0.50;;;;;10.42;77.80;99665.72;5072202;27;45668;-61
2023/11/10 06:02:35;;;;;;;;;2.50;1.00;;;;;10.44;77.76;99676.34;5070585;28;45354;-61
2023/11/10 06:05:01;;;;;;;;;7.00;2.00;;;;;10.49;78.01;99690.31;5077341;27;45667;-61
2023/11/10 06:07:27;;;;;;;;;1.00;1.00;;;;;10.44;78.27;99668.31;5061990;27;45452;-60
2023/11/10 06:09:52;;;;;;;;;0.25;0.25;;;;;10.52;77.93;99680.38;5072301;27;45320;-60
2023/11/10 06:12:18;;;;;;;;;3.00;0.25;;;;;10.49;77.79;99677.84;5057966;28;70617;-61
2023/11/10 06:14:43;;;;;;;;;0.00;0.00;;;;;10.52;78.14;99685.72;5073431;27;46235;-61
2023/11/10 06:17:08;;;;;;;;;2.50;0.25;;;;;10.52;77.44;99683.03;5068160;28;70471;-61
2023/11/10 06:19:33;;;;;;;;;1.00;1.00;;;;;10.50;78.10;99678.72;5074329;27;45376;-60
2023/11/10 06:22:00;;;;;;;;;2.00;1.00;;;;;10.57;77.97;99696.13;5069221;27;45381;-60
2023/11/10 06:24:25;;;;;;;;;0.50;0.00;;;;;10.57;77.77;99689.03;5077453;27;47644;-61
2023/11/10 06:26:50;;;;;;;;;1.00;1.00;;;;;10.55;77.52;99695.34;5079643;28;45408;-60
2023/11/10 06:29:16;;;;;;;;;0.75;0.75;;;;;10.57;77.87;99699.69;5081723;27;63814;-61
2023/11/10 06:31:41;;;;;;;;;1.00;1.00;;;;;10.57;77.70;99694.34;5081035;28;45794;-61
2023/11/10 06:34:07;;;;;;;;;0.00;0.00;;;;;10.57;77.60;99694.34;5076773;27;50060;-61
2023/11/10 06:36:32;;;;;;;;;1.00;1.00;;;;;10.59;77.56;99694.25;5067806;28;45474;-60
2023/11/10 06:38:58;;;;;;;;;2.75;0.25;;;;;10.61;77.48;99692.41;5068266;27;55369;-61
2023/11/10 06:41:24;;;;;;;;;2.00;1.00;;;;;10.56;77.72;99670.41;5071913;28;45339;-61
2023/11/10 06:43:49;;;;;;;;;1.00;1.00;;;;;10.64;77.20;99694.91;5075657;27;45405;-61
2023/11/10 06:46:20;;;;;;;;;2.00;1.00;;;;;10.60;77.46;99681.78;5072032;27;45480;-61
2023/11/10 06:48:46;;;;;;;;;0.00;0.00;;;;;10.64;77.24;99686.03;5069427;27;45342;-61
2023/11/10 06:51:11;;;;;;;;;1.00;1.00;;;;;10.69;77.35;99689.31;5079140;27;46684;-61
2023/11/10 06:53:37;;;;;;;;;2.00;1.00;;;;;10.66;77.33;99695.69;5068145;27;69546;-61
2023/11/10 06:56:02;;;;;;;;;3.75;1.25;;;;;10.53;76.97;99675.91;5077650;28;68356;-61
2023/11/10 06:58:28;;;;;;;;;1.00;1.00;;;;;10.64;77.09;99697.59;5071789;27;45409;-61
2023/11/10 07:00:54;;;;;;;;;2.00;1.00;;;;;10.55;76.95;99692.69;5078929;27;45486;-61
2023/11/10 07:03:20;;;;;;;;;0.00;0.00;;;;;10.51;77.48;99688.47;5061804;27;45321;-61
2023/11/10 07:05:46;;;;;;;;;2.00;0.25;;;;;10.62;77.53;99703.94;5070849;27;45372;-61
2023/11/10 07:08:17;;;;;;;;;2.25;1.50;;;;;10.57;77.02;99697.03;5068092;27;45931;-62
2023/11/10 07:10:44;;;;;;;;;0.00;0.00;;;;;10.64;77.00;99702.94;5078929;27;45534;-61
2023/11/10 07:13:10;;;;;;;;;1.00;1.00;;;;;10.38;77.19;99657.03;5068357;27;46124;-62
2023/11/10 07:15:35;;;;;;;;;2.00;0.50;;;;;10.61;77.13;99699.50;5077103;27;45299;-62
2023/11/10 07:18:02;;;;;;;;;2.00;0.75;;;;;10.60;77.68;99700.47;5061661;28;45405;-62
2023/11/10 07:20:30;;;;;;;;;0.00;0.00;;;;;10.63;77.30;99690.50;5073492;27;45271;-62
2023/11/10 07:22:58;;;;;;;;;1.00;1.00;;;;;10.66;77.28;99692.16;5061127;28;46260;-62
2023/11/10 07:25:25;;;;;;;;;1.25;1.25;;;;;10.67;77.64;99691.22;5067550;27;45439;-61
2023/11/10 07:27:51;;;;;;;;;1.00;1.00;;;;;10.68;77.43;99683.13;5061468;27;45385;-62
2023/11/10 07:30:18;;;;;;;;;0.25;0.25;;;;;10.68;77.66;99684.94;5073879;27;45565;-62
2023/11/10 07:32:43;;;;;;;;;3.00;0.50;;;;;10.66;77.26;99682.34;5061883;27;45355;-62
2023/11/10 07:35:09;;;;;;;;;3.25;2.00;;;;;10.60;77.52;99671.13;5066243;27;45332;-61
2023/11/10 07:37:36;;;;;;;;;3.50;0.50;;;;;10.54;77.46;99659.81;5070673;28;68003;-61
2023/11/10 07:40:05;;;;;;;;;3.50;2.00;;;;;10.54;77.47;99669.59;5078994;27;45501;-61
2023/11/10 07:42:31;;;;;;;;;2.50;1.00;;;;;10.54;77.64;99682.94;5074801;27;46262;-61
2023/11/10 07:44:57;;;;;;;;;1.00;1.00;;;;;10.57;77.61;99680.13;5077782;27;45520;-61
2023/11/10 07:47:22;;;;;;;;;1.00;1.00;;;;;10.65;77.60;99674.41;5062771;28;45284;-61
2023/11/10 07:49:48;;;;;;;;;1.25;1.00;;;;;10.63;77.32;99679.84;5064215;27;45360;-61
2023/11/10 07:52:13;;;;;;;;;1.50;0.00;;;;;10.54;77.80;99667.81;5067222;28;75584;-61
2023/11/10 07:54:38;;;;;;;;;1.00;0.00;;;;;10.66;77.92;99685.03;5078370;27;45595;-61
2023/11/10 07:57:03;;;;;;;;;1.00;1.00;;;;;10.66;77.88;99682.34;5061455;28;50267;-61
2023/11/10 07:59:29;;;;;;;;;1.00;1.00;;;;;10.69;77.55;99692.00;5059872;28;64839;-61
2023/11/10 08:01:54;;;;;;;;;1.00;1.00;;;;;10.70;77.81;99686.59;5060524;28;45420;-61
2023/11/10 08:04:20;;;;;;;;;3.00;1.00;;;;;10.71;77.78;99682.13;5060464;28;45346;-61
2023/11/10 08:06:45;;;;;;;;;2.00;1.00;;;;;10.78;77.69;99688.03;5060616;27;51385;-61
2023/11/10 08:09:11;;;;;;;;;3.00;2.00;;;;;10.68;77.69;99672.47;5070336;28;45470;-61
2023/11/10 08:11:37;;;;;;;;;3.25;1.00;;;;;10.70;77.94;99672.38;5067055;27;45452;-61
2023/11/10 08:14:03;;;;;;;;;3.00;3.00;;;;;10.71;78.06;99682.13;5078740;28;55087;-61
2023/11/10 08:16:29;;;;;;;;;1.75;1.75;;;;;10.66;77.94;99657.44;5067715;28;45384;-61
2023/11/10 08:18:54;;;;;;;;;2.00;1.00;;;;;10.77;78.45;99681.81;5081026;27;45520;-61
2023/11/10 08:21:20;;;;;;;;;3.75;1.75;;;;;10.78;77.98;99683.53;5080037;27;46699;-61
2023/11/10 08:23:46;;;;;;;;;2.25;1.50;;;;;10.75;78.43;99689.88;5080534;27;45419;-61
2023/11/10 08:26:12;;;;;;;;;2.25;1.00;;;;;10.75;78.44;99684.56;5073623;28;45601;-61
2023/11/10 08:28:38;;;;;;;;;3.75;1.00;;;;;10.84;78.33;99698.38;5069218;28;45669;-61
2023/11/10 08:31:03;;;;;;;;;2.00;0.25;;;;;10.79;78.09;99687.94;5070883;28;46205;-61
2023/11/10 08:33:29;;;;;;;;;1.00;1.00;;;;;10.80;77.99;99683.47;5068555;27;47147;-61
2023/11/10 08:35:54;;;;;;;;;2.00;1.50;;;;;10.90;77.80;99687.41;5075420;28;45353;-61
2023/11/10 08:38:20;;;;;;;;;2.00;1.00;;;;;10.84;78.30;99669.00;5060097;28;45451;-61
2023/11/10 08:40:46;;;;;;;;;2.50;2.50;;;;;10.94;78.48;99692.50;5060137;28;45977;-61
2023/11/10 08:43:12;;;;;;;;;3.00;1.25;;;;;10.96;78.51;99691.56;5073626;28;45452;-61
2023/11/10 08:45:37;;;;;;;;;4.00;0.75;;;;;10.99;77.90;99702.09;5078363;27;45374;-61
2023/11/10 08:48:04;;;;;;;;;4.00;1.00;;;;;10.99;77.62;99696.75;5070439;27;53051;-61
2023/11/10 08:50:29;;;;;;;;;1.00;1.00;;;;;10.99;78.20;99697.59;5077421;27;46572;-61
2023/11/10 08:52:54;;;;;;;;;4.00;1.50;;;;;11.03;78.05;99706.34;5068228;27;45354;-61
2023/11/10 08:55:22;;;;;;;;;3.50;1.00;;;;;10.99;78.33;99688.72;5071540;28;61422;-61
2023/11/10 08:57:47;;;;;;;;;0.75;0.00;;;;;11.10;78.00;99687.25;5069427;28;45532;-61
2023/11/10 09:00:16;;;;;;;;;2.50;1.25;;;;;11.16;77.79;99690.53;5073274;28;46422;-61
2023/11/10 09:02:42;;;;;;;;;2.50;1.00;;;;;11.12;77.87;99701.38;5065148;27;45334;-61
2023/11/10 09:05:10;;;;;;;;;2.00;1.00;;;;;11.14;77.95;99693.28;5063302;27;45457;-62
2023/11/10 09:07:37;;;;;;;;;3.50;2.00;;;;;11.19;77.54;99698.41;5061274;28;46833;-62
2023/11/10 09:10:04;;;;;;;;;4.00;1.75;;;;;11.18;77.71;99708.22;5071468;28;47328;-61
2023/11/10 09:12:30;;;;;;;;;2.00;1.00;;;;;11.25;77.83;99698.09;5064159;27;45575;-62
2023/11/10 09:14:56;;;;;;;;;1.50;1.00;;;;;11.27;77.67;99699.72;5059982;28;45473;-64
2023/11/10 09:17:22;;;;;;;;;2.50;0.25;;;;;11.31;77.53;99700.44;5071924;28;45675;-63
2023/11/10 09:19:47;;;;;;;;;3.25;1.00;;;;;11.31;77.80;99703.97;5078918;27;45616;-64
2023/11/10 09:22:13;;;;;;;;;8.00;2.00;;;;;11.26;77.77;99687.31;5063406;27;45392;-63
2023/11/10 09:24:44;;;;;;;;;0.25;0.00;;;;;11.31;77.39;99682.59;5074239;28;45395;-63
2023/11/10 09:27:09;;;;;;;;;4.25;4.00;;;;;11.44;77.63;99696.19;5060194;28;45354;-63
2023/11/10 09:29:34;;;;;;;;;4.75;2.25;;;;;11.46;77.65;99699.63;5060469;28;56600;-62
2023/11/10 09:31:59;;;;;;;;;3.00;1.50;;;;;11.44;77.53;99682.84;5062961;28;74274;-63
2023/11/10 09:34:25;;;;;;;;;0.75;0.25;;;;;11.48;76.89;99675.50;5069447;27;61853;-63
2023/11/10 09:36:54;;;;;;;;;1.00;1.00;;;;;11.54;77.26;99675.16;5072613;28;45814;-62
2023/11/10 09:39:20;;;;;;;;;1.00;1.00;;;;;11.57;77.23;99680.34;5075373;28;48208;-62
2023/11/10 09:41:48;;;;;;;;;1.25;1.00;;;;;11.57;77.38;99663.47;5062465;28;45305;-62
2023/11/10 09:44:15;;;;;;;;;3.25;1.00;;;;;11.63;77.40;99680.03;5078394;27;45421;-62
2023/11/10 09:46:43;;;;;;;;;4.00;1.50;;;;;11.64;77.17;99670.19;5058697;28;45626;-63
2023/11/10 09:49:10;;;;;;;;;3.50;1.00;;;;;11.60;77.61;99674.84;5062894;27;47690;-62
2023/11/10 09:51:39;;;;;;;;;1.75;1.75;;;;;11.63;77.64;99672.00;5073957;28;45590;-62
2023/11/10 09:54:05;;;;;;;;;0.25;0.25;;;;;11.56;77.28;99661.72;5068593;27;45380;-62
2023/11/10 09:56:38;;;;;;;;;3.50;1.00;;;;;11.60;77.21;99672.16;5075414;28;45649;-62
2023/11/10 09:59:05;;;;;;;;;3.00;1.75;;;;;11.70;77.14;99677.88;5057350;28;47105;-62
2023/11/10 10:01:31;;;;;;;;;2.50;2.00;;;;;11.72;77.34;99675.13;5058048;28;45421;-62
2023/11/10 10:03:56;;;;;;;;;3.25;1.00;;;;;11.65;77.20;99653.22;5060685;27;45441;-62
2023/11/10 10:06:22;;;;;;;;;2.75;1.00;;;;;11.77;77.02;99665.91;5073076;27;45603;-62
2023/11/10 10:08:47;;;;;;;;;6.50;0.75;;;;;11.74;77.11;99657.19;5064798;27;45539;-62
2023/11/10 10:11:15;;;;;;;;;2.25;0.50;;;;;11.79;77.17;99668.50;5069627;28;45826;-62
2023/11/10 10:13:42;;;;;;;;;1.25;1.25;;;;;11.81;77.43;99664.81;5066654;28;45525;-62
2023/11/10 10:16:10;;;;;;;;;2.75;1.00;;;;;11.86;77.01;99664.53;5067416;28;45304;-62
2023/11/10 10:18:37;;;;;;;;;1.00;1.00;;;;;11.83;77.21;99656.72;5062006;27;45729;-62
2023/11/10 10:21:03;;;;;;;;;0.25;0.25;;;;;11.95;77.62;99649.84;5076573;27;45489;-62
2023/11/10 10:23:28;;;;;;;;;4.50;1.75;;;;;11.92;77.38;99644.66;5075109;27;45536;-62
2023/11/10 10:25:57;;;;;;;;;0.75;0.75;;;;;12.02;76.81;99645.88;5068649;27;45696;-62
2023/11/10 10:28:23;;;;;;;;;1.00;1.00;;;;;12.02;77.00;99661.91;5071097;27;45382;-62
2023/11/10 10:30:48;;;;;;;;;1.75;0.00;;;;;12.01;76.88;99639.66;5065185;28;45497;-62
2023/11/10 10:33:14;;;;;;;;;2.00;1.50;;;;;12.10;76.96;99645.47;5071056;27;45313;-62
2023/11/10 10:35:40;;;;;;;;;3.00;2.00;;;;;12.09;76.96;99631.19;5073471;27;45483;-62
2023/11/10 10:38:08;;;;;;;;;0.50;0.50;;;;;12.11;77.05;99634.69;5074416;28;45494;-62
2023/11/10 10:40:35;;;;;;;;;3.00;1.00;;;;;12.08;77.46;99604.53;5066095;28;45611;-62
2023/11/10 10:43:02;;;;;;;;;1.50;1.50;;;;;12.19;77.34;99619.03;5064298;27;45370;-62
2023/11/10 10:45:28;;;;;;;;;4.00;1.00;;;;;12.29;77.02;99613.16;5061830;28;45268;-62
2023/11/10 10:47:57;;;;;;;;;1.50;1.50;;;;;12.11;77.18;99591.88;5073025;28;45333;-62
2023/11/10 10:50:27;;;;;;;;;4.25;2.50;;;;;12.28;76.94;99598.03;5074647;27;45792;-62
2023/11/10 10:52:57;;;;;;;;;1.75;1.25;;;;;12.36;76.98;99609.16;5077371;27;45601;-62
2023/11/10 10:55:23;;;;;;;;;6.25;1.75;;;;;12.37;76.58;99601.06;5062428;27;45442;-62
2023/11/10 10:57:48;;;;;;;;;3.25;1.25;;;;;12.47;76.68;99627.28;5076637;27;45326;-62
2023/11/10 11:00:16;;;;;;;;;1.50;0.00;;;;;12.38;76.46;99596.59;5076190;27;49470;-62
2023/11/10 11:02:48;;;;;;;;;3.00;1.00;;;;;12.51;76.48;99605.63;5077489;27;45394;-62
2023/11/10 11:05:31;;;;;;;;;1.75;1.00;;;;;12.56;76.54;99605.31;5072594;27;45437;-62
2023/11/10 11:08:08;;;;;;;;;1.75;1.00;;;;;12.47;76.00;99579.97;5057486;28;46557;-64
2023/11/10 11:10:52;;;;;;;;;3.00;1.00;;;;;12.62;76.13;99604.13;5072184;28;45444;-64
2023/11/10 11:13:34;;;;;;;;;1.00;1.00;;;;;12.64;76.20;99592.34;5070633;27;45563;-64
2023/11/10 11:16:18;;;;;;;;;1.50;1.00;;;;;12.66;76.05;99576.19;5067665;28;45500;-64
2023/11/10 11:19:01;;;;;;;;;0.75;0.75;;;;;12.71;76.35;99576.78;5067965;28;45477;-62
2023/11/10 11:21:26;;;;;;;;;3.50;2.00;;;;;12.69;76.08;99560.81;5072213;27;45543;-62
2023/11/10 11:23:52;;;;;;;;;3.50;1.00;;;;;12.72;75.46;99560.63;5068555;27;45586;-62
2023/11/10 11:26:17;;;;;;;;;3.00;2.00;;;;;12.83;75.11;99564.47;5078385;27;45475;-62
2023/11/10 11:28:43;;;;;;;;;5.00;1.00;;;;;12.81;75.21;99544.97;5068438;27;74092;-62